createdAt,value
2022-09-07T00:00:50.048Z,15.70
2022-09-07T00:04:32.191Z,15.60
2022-09-07T00:08:15.811Z,15.60
2022-09-07T00:11:57.830Z,15.60
2022-09-07T00:15:40.524Z,15.60
2022-09-07T00:19:22.942Z,15.50
2022-09-07T00:23:04.995Z,15.50
2022-09-07T00:26:47.066Z,15.60
2022-09-07T00:30:29.035Z,15.70
2022-09-07T00:34:11.118Z,15.70
2022-09-07T00:37:53.106Z,15.80
2022-09-07T00:41:35.136Z,15.80
2022-09-07T00:45:21.335Z,15.80
2022-09-07T00:49:16.557Z,15.80
2022-09-07T00:53:05.129Z,15.90
2022-09-07T00:56:49.142Z,16.00
2022-09-07T01:00:31.663Z,16.00
2022-09-07T01:04:15.185Z,16.00
2022-09-07T01:07:58.379Z,16.10
2022-09-07T01:11:41.054Z,16.20
2022-09-07T01:15:27.727Z,16.10
2022-09-07T01:19:35.948Z,16.20
2022-09-07T01:23:39.503Z,16.20
2022-09-07T01:27:36.998Z,16.20
2022-09-07T01:36:18.181Z,16.20
2022-09-07T01:40:05.992Z,16.10
2022-09-07T01:44:15.311Z,16.10
2022-09-07T01:48:01.310Z,16.00
2022-09-07T01:51:47.718Z,15.90
2022-09-07T01:55:59.302Z,15.90
2022-09-07T01:59:48.867Z,15.90
2022-09-07T02:03:37.043Z,15.80
2022-09-07T02:08:01.404Z,15.90
2022-09-07T02:11:48.529Z,15.90
2022-09-07T02:15:47.286Z,15.90
2022-09-07T02:19:35.879Z,15.90
2022-09-07T02:23:22.630Z,16.00
2022-09-07T02:27:27.233Z,15.90
2022-09-07T02:31:09.695Z,15.90
2022-09-07T02:34:51.813Z,15.90
2022-09-07T02:38:35.245Z,15.80
2022-09-07T02:42:17.246Z,15.80
2022-09-07T02:46:36.880Z,15.70
2022-09-07T02:50:47.776Z,15.70
2022-09-07T02:55:02.447Z,15.70
2022-09-07T02:59:03.268Z,15.60
2022-09-07T03:03:04.047Z,15.70
2022-09-07T03:07:00.583Z,15.70
2022-09-07T03:10:44.021Z,15.70
2022-09-07T03:14:27.067Z,15.70
2022-09-07T03:18:09.307Z,15.70
2022-09-07T03:21:51.380Z,15.70
2022-09-07T03:25:33.444Z,15.70
2022-09-07T03:29:16.271Z,15.60
2022-09-07T03:32:58.352Z,15.60
2022-09-07T03:36:40.646Z,15.60
2022-09-07T03:49:04.289Z,15.40
2022-09-07T03:52:46.297Z,15.40
2022-09-07T03:56:29.630Z,15.30
2022-09-07T04:00:12.426Z,15.30
2022-09-07T04:04:02.014Z,15.30
2022-09-07T04:12:47.365Z,15.30
2022-09-07T04:16:29.972Z,15.30
2022-09-07T04:20:12.108Z,15.30
2022-09-07T04:23:54.511Z,15.20
2022-09-07T04:27:36.603Z,15.20
2022-09-07T04:31:19.380Z,15.20
2022-09-07T04:35:01.474Z,15.30
2022-09-07T04:38:43.951Z,15.30
2022-09-07T04:42:26.032Z,15.30
2022-09-07T04:46:19.983Z,15.40
2022-09-07T04:50:02.059Z,15.40
2022-09-07T04:53:47.235Z,15.40
2022-09-07T04:57:29.257Z,15.40
2022-09-07T05:01:14.278Z,15.40
2022-09-07T05:04:59.431Z,15.40
2022-09-07T05:08:47.640Z,15.50
2022-09-07T05:12:29.708Z,15.50
2022-09-07T05:16:17.859Z,15.60
2022-09-07T05:19:59.897Z,15.60
2022-09-07T05:23:43.641Z,15.70
2022-09-07T05:27:26.135Z,15.70
2022-09-07T05:34:58.479Z,15.80
2022-09-07T05:38:40.928Z,15.80
2022-09-07T05:43:25.862Z,15.80
2022-09-07T05:47:07.976Z,15.80
2022-09-07T05:50:53.459Z,15.80
2022-09-07T05:54:35.624Z,15.80
2022-09-07T05:58:18.501Z,15.80
2022-09-07T06:02:00.672Z,15.80
2022-09-07T06:05:42.967Z,15.70
2022-09-07T06:09:28.520Z,15.70
2022-09-07T06:13:12.432Z,15.70
2022-09-07T06:16:54.475Z,15.70
2022-09-07T06:20:36.601Z,15.80
2022-09-07T06:24:18.677Z,16.20
2022-09-07T06:28:00.746Z,16.60
2022-09-07T06:35:55.948Z,17.70
2022-09-07T06:39:38.084Z,18.40
2022-09-07T06:43:20.345Z,19.00
2022-09-07T06:47:03.182Z,19.50
2022-09-07T06:50:54.619Z,20.00
2022-09-07T06:58:42.338Z,21.20
2022-09-07T07:02:24.548Z,21.70
2022-09-07T07:06:07.113Z,22.20
2022-09-07T07:09:50.272Z,22.70
2022-09-07T07:13:32.539Z,23.00
2022-09-07T07:17:14.724Z,22.70
2022-09-07T07:20:56.727Z,22.70
2022-09-07T07:24:38.789Z,23.20
2022-09-07T07:32:29.539Z,24.00
2022-09-07T07:36:14.424Z,24.40
2022-09-07T07:44:00.640Z,25.20
2022-09-07T07:47:42.962Z,25.30
2022-09-07T07:51:25.066Z,25.40
2022-09-07T07:59:15.055Z,26.10
2022-09-07T08:03:03.947Z,26.30
2022-09-07T08:06:46.031Z,26.50
2022-09-07T08:10:30.518Z,26.10
2022-09-07T08:14:12.474Z,25.80
2022-09-07T08:17:54.458Z,25.30
2022-09-07T08:21:36.578Z,24.70
2022-09-07T08:25:19.323Z,24.00
2022-09-07T08:29:01.356Z,24.10
2022-09-07T08:32:43.436Z,24.10
2022-09-07T08:36:25.473Z,24.00
2022-09-07T08:40:08.577Z,24.00
2022-09-07T08:44:02.842Z,23.70
2022-09-07T08:47:50.708Z,23.10
2022-09-07T08:51:47.149Z,22.30
2022-09-07T08:55:33.627Z,21.60
2022-09-07T08:59:22.753Z,20.50
2022-09-07T09:07:16.725Z,19.20
2022-09-07T09:11:04.281Z,19.50
2022-09-07T09:15:03.561Z,20.90
2022-09-07T09:19:02.726Z,22.40
2022-09-07T09:22:45.297Z,23.70
2022-09-07T09:26:29.136Z,24.70
2022-09-07T09:30:17.273Z,25.80
2022-09-07T09:34:25.298Z,26.10
2022-09-07T09:38:50.953Z,26.00
2022-09-07T09:42:35.477Z,25.20
2022-09-07T09:46:27.360Z,23.80
2022-09-07T09:54:37.374Z,21.70
2022-09-07T10:06:38.268Z,19.90
2022-09-07T10:10:20.520Z,19.80
2022-09-07T10:14:04.515Z,19.90
2022-09-07T10:17:49.974Z,19.80
2022-09-07T10:21:32.602Z,19.70
2022-09-07T10:25:39.860Z,19.70
2022-09-07T10:29:31.451Z,19.90
2022-09-07T10:33:32.250Z,21.80
2022-09-07T10:37:42.472Z,23.50
2022-09-07T10:41:45.095Z,25.10
2022-09-07T10:45:45.988Z,25.20
2022-09-07T11:07:36.335Z,25.40
2022-09-07T11:12:07.568Z,26.20
2022-09-07T11:15:54.994Z,27.00
2022-09-07T11:19:49.430Z,27.50
2022-09-07T11:24:11.367Z,27.30
2022-09-07T11:27:59.602Z,27.20
2022-09-07T11:31:54.126Z,27.60
2022-09-07T11:35:51.792Z,28.10
2022-09-07T11:39:54.167Z,28.40
2022-09-07T11:43:41.993Z,28.60
2022-09-07T11:47:45.815Z,28.90
2022-09-07T11:51:46.314Z,29.00
2022-09-07T11:55:34.109Z,28.90
2022-09-07T11:59:19.186Z,28.30
2022-09-07T12:03:13.310Z,28.20
2022-09-07T12:07:27.459Z,27.40
2022-09-07T12:11:28.466Z,26.30
2022-09-07T12:15:36.385Z,25.60
2022-09-07T12:19:28.568Z,25.50
2022-09-07T12:23:19.690Z,24.90
2022-09-07T12:27:03.139Z,25.00
2022-09-07T12:31:04.637Z,25.40
2022-09-07T12:34:54.859Z,25.60
2022-09-07T12:39:02.800Z,24.90
2022-09-07T12:42:47.153Z,24.80
2022-09-07T12:46:34.729Z,24.90
2022-09-07T12:50:51.057Z,24.70
2022-09-07T12:54:42.912Z,24.90
2022-09-07T12:58:41.756Z,24.50
2022-09-07T13:02:43.442Z,24.20
2022-09-07T13:10:42.738Z,24.00
2022-09-07T13:14:27.763Z,23.90
2022-09-07T13:18:41.222Z,23.70
2022-09-07T13:22:37.389Z,23.70
2022-09-07T13:26:59.109Z,23.50
2022-09-07T13:30:56.139Z,23.50
2022-09-07T13:34:50.077Z,23.30
2022-09-07T13:38:35.321Z,23.20
2022-09-07T13:42:40.425Z,23.20
2022-09-07T13:46:27.904Z,23.20
2022-09-07T13:50:38.581Z,23.10
2022-09-07T13:54:27.622Z,22.80
2022-09-07T13:58:28.099Z,22.70
2022-09-07T14:02:29.421Z,22.70
2022-09-07T14:06:26.352Z,22.70
2022-09-07T14:10:14.728Z,22.60
2022-09-07T14:14:17.054Z,22.40
2022-09-07T14:18:31.749Z,22.20
2022-09-07T14:22:18.443Z,22.10
2022-09-07T14:26:25.785Z,22.10
2022-09-07T14:30:33.567Z,22.10
2022-09-07T14:34:20.084Z,22.10
2022-09-07T14:39:03.980Z,22.20
2022-09-07T14:42:25.693Z,22.30
2022-09-07T14:46:26.594Z,22.10
2022-09-07T14:50:25.773Z,22.10
2022-09-07T14:54:10.168Z,22.20
2022-09-07T14:58:16.640Z,22.20
2022-09-07T15:02:32.966Z,22.10
2022-09-07T15:11:32.979Z,22.10
2022-09-07T15:14:52.516Z,22.10
2022-09-07T15:18:56.080Z,22.20
2022-09-07T15:22:38.599Z,22.20
2022-09-07T15:30:34.505Z,22.50
2022-09-07T15:34:22.346Z,22.50
2022-09-07T15:46:16.207Z,22.10
2022-09-07T15:49:58.308Z,22.10
2022-09-07T15:57:56.871Z,21.90
2022-09-07T16:01:52.223Z,21.90
2022-09-07T16:05:35.028Z,21.70
2022-09-07T16:09:17.516Z,21.60
2022-09-07T16:13:02.231Z,21.50
2022-09-07T16:20:47.952Z,21.30
2022-09-07T16:24:35.666Z,21.20
2022-09-07T16:28:17.634Z,21.10
2022-09-07T16:36:04.610Z,20.90
2022-09-07T16:39:46.572Z,20.90
2022-09-07T16:43:28.666Z,20.70
2022-09-07T16:47:12.855Z,20.70
2022-09-07T16:51:01.066Z,20.60
2022-09-07T16:54:44.277Z,20.60
2022-09-07T16:58:36.535Z,20.50
2022-09-07T17:02:19.291Z,20.50
2022-09-07T17:06:02.273Z,20.40
2022-09-07T17:09:44.297Z,20.30
2022-09-07T17:13:26.575Z,20.30
2022-09-07T17:17:09.260Z,20.20
2022-09-07T17:20:56.665Z,20.20
2022-09-07T17:24:40.430Z,20.00
2022-09-07T17:28:22.384Z,20.00
2022-09-07T17:36:12.292Z,19.90
2022-09-07T17:39:54.456Z,19.80
2022-09-07T17:43:45.414Z,19.30
2022-09-07T17:47:30.410Z,18.70
2022-09-07T17:51:13.258Z,18.20
2022-09-07T17:54:56.131Z,18.10
2022-09-07T17:58:39.715Z,17.90
2022-09-07T18:02:21.842Z,17.80
2022-09-07T18:06:04.141Z,17.70
2022-09-07T18:09:47.131Z,17.70
2022-09-07T18:13:35.920Z,17.60
2022-09-07T18:17:19.210Z,17.60
2022-09-07T18:21:01.233Z,17.40
2022-09-07T18:24:43.259Z,17.20
2022-09-07T18:32:27.466Z,16.80
2022-09-07T18:36:11.808Z,16.70
2022-09-07T18:39:54.585Z,16.70
2022-09-07T18:43:39.101Z,16.60
2022-09-07T18:47:27.541Z,16.50
2022-09-07T18:51:10.837Z,16.50
2022-09-07T18:54:58.798Z,16.40
2022-09-07T18:58:41.975Z,16.30
2022-09-07T19:02:24.098Z,16.20
2022-09-07T19:06:10.083Z,16.20
2022-09-07T19:09:52.136Z,16.20
2022-09-07T19:13:35.377Z,16.10
2022-09-07T19:17:18.004Z,16.10
2022-09-07T19:21:08.498Z,16.00
2022-09-07T19:24:50.743Z,16.00
2022-09-07T19:28:33.236Z,15.90
2022-09-07T19:32:15.196Z,15.80
2022-09-07T19:35:57.306Z,15.80
2022-09-07T19:39:39.988Z,15.70
2022-09-07T19:43:22.097Z,15.70
2022-09-07T19:47:04.244Z,15.60
2022-09-07T19:50:47.007Z,15.50
2022-09-07T19:54:28.979Z,15.40
2022-09-07T19:58:12.717Z,15.30
2022-09-07T20:01:54.686Z,15.30
2022-09-07T20:05:42.845Z,15.20
2022-09-07T20:09:25.900Z,15.20
2022-09-07T20:13:08.203Z,15.20
2022-09-07T20:16:50.405Z,15.10
2022-09-07T20:20:34.635Z,15.10
2022-09-07T20:24:22.237Z,15.00
2022-09-07T20:28:04.234Z,14.90
2022-09-07T20:31:46.996Z,14.90
2022-09-07T20:35:31.167Z,14.90
2022-09-07T20:39:16.369Z,14.90
2022-09-07T20:42:58.984Z,14.80
2022-09-07T20:46:41.058Z,14.70
2022-09-07T20:50:23.112Z,14.70
2022-09-07T20:54:20.450Z,14.70
2022-09-07T20:58:03.303Z,14.70
2022-09-07T21:01:46.777Z,14.70
2022-09-07T21:05:28.999Z,14.70
2022-09-07T21:09:11.001Z,14.70
2022-09-07T21:13:33.982Z,14.70
2022-09-07T21:17:16.028Z,14.70
2022-09-07T21:21:18.745Z,14.70
2022-09-07T21:25:02.530Z,14.70
2022-09-07T21:28:44.649Z,14.70
2022-09-07T21:32:26.697Z,14.70
2022-09-07T21:36:11.487Z,14.60
2022-09-07T21:39:53.680Z,14.60
2022-09-07T21:43:35.833Z,14.60
2022-09-07T21:52:25.880Z,14.50
2022-09-07T21:56:11.719Z,14.50
2022-09-07T21:59:53.684Z,14.50
2022-09-07T22:03:35.704Z,14.50
2022-09-07T22:07:17.701Z,14.50
2022-09-07T22:11:12.066Z,14.50
2022-09-07T22:14:54.142Z,14.40
2022-09-07T22:18:38.048Z,14.40
2022-09-07T22:22:20.025Z,14.40
2022-09-07T22:26:02.077Z,14.50
2022-09-07T22:29:43.984Z,14.60
2022-09-07T22:33:26.156Z,14.60
2022-09-07T22:37:08.109Z,14.70
2022-09-07T22:40:50.243Z,14.70
2022-09-07T22:44:32.281Z,14.70
2022-09-07T22:48:14.231Z,14.80
2022-09-07T22:51:56.176Z,14.80
2022-09-07T22:55:39.376Z,14.80
2022-09-07T22:59:21.543Z,14.80
2022-09-07T23:03:05.303Z,14.90
2022-09-07T23:06:47.381Z,14.90
2022-09-07T23:10:29.421Z,14.90
2022-09-07T23:14:17.241Z,14.90
2022-09-07T23:23:02.381Z,14.90
2022-09-07T23:26:44.411Z,14.90
2022-09-07T23:30:26.443Z,14.90
2022-09-07T23:34:08.802Z,14.90
2022-09-07T23:37:50.704Z,14.80
2022-09-07T23:41:32.910Z,14.90
2022-09-07T23:45:15.368Z,14.80
2022-09-07T23:48:57.394Z,14.80
2022-09-07T23:52:39.403Z,14.80
2022-09-07T23:56:22.552Z,14.80
